Time;durP1;ratioP1;P1;durP2;ratioP2;P2;SDS_P1;SDS_P2;PMS_P1;PMS_P2;Temp;Humidity;BMP_temperature;BMP_pressure;BME280_temperature;BME280_humidity;BME280_pressure;Samples;Min_cycle;Max_cycle;Signal;HPM_P1;HPM_P2
2023/10/30 00:02:23;;;;;;;6.03;1.53;;;;;;;14.46;69.05;100123.94;1460470;89;22345;-89
2023/10/30 00:04:51;;;;;;;7.50;1.50;;;;;;;14.44;68.99;100127.27;1458704;89;21436;-88
2023/10/30 00:07:18;;;;;;;2.63;1.40;;;;;;;14.42;69.01;100128.80;1462765;89;21377;-89
2023/10/30 00:09:44;;;;;;;3.33;1.67;;;;;;;14.39;68.96;100131.83;1456240;89;21376;-87
2023/10/30 00:12:11;;;;;;;8.23;2.23;;;;;;;14.37;68.79;100126.35;1454205;89;21480;-89
2023/10/30 00:14:37;;;;;;;4.30;1.90;;;;;;;14.33;68.82;100124.56;1458677;89;21304;-88
2023/10/30 00:17:04;;;;;;;4.87;1.83;;;;;;;14.32;68.97;100125.55;1456328;89;21363;-87
2023/10/30 00:19:30;;;;;;;3.30;1.70;;;;;;;14.29;69.04;100125.08;1437412;89;21492;-89
2023/10/30 00:21:56;;;;;;;5.30;2.20;;;;;;;14.25;68.98;100127.80;1458776;89;21473;-89
2023/10/30 00:24:23;;;;;;;11.87;2.10;;;;;;;14.23;69.21;100130.62;1453251;89;21584;-91
2023/10/30 00:26:50;;;;;;;4.90;1.67;;;;;;;14.22;69.46;100134.30;1439956;89;21325;-86
2023/10/30 00:29:16;;;;;;;3.43;1.47;;;;;;;14.23;69.29;100137.27;1432655;89;21362;-89
2023/10/30 00:31:42;;;;;;;4.37;1.50;;;;;;;14.23;69.20;100129.28;1458096;89;21425;-86
2023/10/30 00:34:11;;;;;;;4.97;2.23;;;;;;;14.23;69.07;100127.95;1456797;89;22279;-86
2023/10/30 00:36:37;;;;;;;3.23;1.60;;;;;;;14.23;68.82;100134.61;1461628;89;21575;-88
2023/10/30 00:39:04;;;;;;;6.17;1.73;;;;;;;14.25;68.58;100129.13;1454024;89;21429;-88
2023/10/30 00:41:31;;;;;;;3.90;1.70;;;;;;;14.23;68.59;100134.10;1456312;89;22455;-84
2023/10/30 00:43:57;;;;;;;8.00;1.73;;;;;;;14.23;68.20;100131.95;1457469;89;21502;-87
2023/10/30 00:46:24;;;;;;;5.27;1.83;;;;;;;14.23;68.36;100127.45;1455156;89;21540;-89
2023/10/30 00:48:50;;;;;;;5.23;2.27;;;;;;;14.22;68.32;100128.97;1463305;89;21377;-86
2023/10/30 00:51:17;;;;;;;3.53;1.23;;;;;;;14.21;68.29;100129.96;1462372;89;21516;-84
2023/10/30 00:53:43;;;;;;;4.63;1.47;;;;;;;14.21;68.37;100127.30;1453064;89;21378;-86
2023/10/30 00:56:10;;;;;;;5.13;1.50;;;;;;;14.19;68.16;100127.49;1454396;89;21443;-85
2023/10/30 00:58:36;;;;;;;3.50;1.70;;;;;;;14.20;68.33;100129.64;1457124;89;21503;-85
2023/10/30 01:01:03;;;;;;;9.10;3.23;;;;;;;14.20;68.29;100128.31;1457491;89;22257;-86
2023/10/30 01:03:30;;;;;;;4.50;1.70;;;;;;;14.18;68.32;100124.99;1436697;89;21435;-85
2023/10/30 01:06:00;;;;;;;7.97;3.03;;;;;;;14.18;68.30;100128.98;1457767;89;21488;-85
2023/10/30 01:08:27;;;;;;;4.60;1.57;;;;;;;14.16;68.33;100119.87;1461434;89;21487;-88
2023/10/30 01:10:56;;;;;;;4.67;1.70;;;;;;;14.17;68.27;100128.67;1451804;89;22694;-88
2023/10/30 01:13:24;;;;;;;4.70;2.00;;;;;;;14.16;68.42;100121.70;1460784;89;21502;-88
2023/10/30 01:15:55;;;;;;;7.37;2.03;;;;;;;14.15;68.45;100120.85;1461219;89;21443;-89
2023/10/30 01:18:22;;;;;;;3.80;1.97;;;;;;;14.16;68.62;100121.70;1456024;89;21421;-87
2023/10/30 01:20:48;;;;;;;6.30;2.27;;;;;;;14.14;68.66;100115.73;1457195;89;21606;-87
2023/10/30 01:23:18;;;;;;;8.00;1.80;;;;;;;14.13;68.68;100122.06;1459067;89;21407;-85
2023/10/30 01:25:46;;;;;;;8.50;1.90;;;;;;;14.11;68.88;100113.42;1460370;89;22516;-86
2023/10/30 01:28:13;;;;;;;5.97;2.00;;;;;;;14.11;68.88;100113.42;1458765;89;21370;-86
2023/10/30 01:30:39;;;;;;;4.03;1.67;;;;;;;14.09;69.06;100115.42;1454693;89;21392;-87
2023/10/30 01:33:06;;;;;;;3.90;1.37;;;;;;;14.10;69.20;100113.93;1455231;89;21550;-86
2023/10/30 01:35:32;;;;;;;4.57;1.90;;;;;;;14.14;69.43;100115.73;1442972;89;21399;-86
2023/10/30 01:37:59;;;;;;;4.13;1.97;;;;;;;14.17;69.48;100112.70;1461711;89;21384;-93
2023/10/30 01:40:25;;;;;;;9.00;2.20;;;;;;;14.19;69.13;100110.70;1459503;89;21413;-93
2023/10/30 01:42:51;;;;;;;5.13;1.50;;;;;;;14.23;68.77;100110.66;1460721;89;21599;-93
2023/10/30 01:45:18;;;;;;;6.83;1.90;;;;;;;14.25;68.92;100111.31;1452161;89;22322;-92
2023/10/30 01:47:44;;;;;;;4.83;1.80;;;;;;;14.23;68.81;100111.98;1471039;89;21466;-91
2023/10/30 01:50:14;;;;;;;3.03;1.87;;;;;;;14.23;68.79;100118.13;1453955;89;21621;-92
2023/10/30 01:52:39;;;;;;;4.57;1.60;;;;;;;14.22;68.82;100117.00;1455262;89;21472;-93
2023/10/30 01:55:07;;;;;;;4.87;2.37;;;;;;;14.21;68.79;100113.98;1437463;89;21576;-92
2023/10/30 01:57:34;;;;;;;4.67;2.17;;;;;;;14.20;68.82;100112.34;1446373;89;21377;-89
2023/10/30 02:00:02;;;;;;;3.83;1.60;;;;;;;14.18;68.80;100114.35;1443250;89;21332;-93
2023/10/30 02:02:31;;;;;;;5.40;2.57;;;;;;;14.18;68.91;100109.02;1441309;89;21377;-93
2023/10/30 02:04:58;;;;;;;11.57;1.97;;;;;;;14.18;68.90;100106.36;1463326;89;21464;-94
2023/10/30 02:07:24;;;;;;;5.07;1.67;;;;;;;14.17;69.03;100099.40;1434392;89;21681;-91
2023/10/30 02:09:51;;;;;;;8.03;2.30;;;;;;;14.15;69.09;100109.38;1452612;89;21421;-92
2023/10/30 02:12:18;;;;;;;3.70;1.80;;;;;;;14.12;69.13;100099.09;1466651;89;22478;-92
2023/10/30 02:14:44;;;;;;;6.43;1.57;;;;;;;14.11;69.21;100100.94;1436541;89;22597;-91
2023/10/30 02:17:11;;;;;;;5.50;1.80;;;;;;;14.09;69.40;100106.11;1468021;89;21508;-91
2023/10/30 02:19:37;;;;;;;3.23;1.73;;;;;;;14.07;69.72;100105.45;1470847;89;21553;-92
2023/10/30 02:22:03;;;;;;;5.60;1.63;;;;;;;14.07;69.98;100106.78;1459410;89;21382;-92
2023/10/30 02:24:30;;;;;;;4.97;2.03;;;;;;;14.09;69.93;100104.78;1464410;89;21493;-90
2023/10/30 02:26:58;;;;;;;6.33;2.10;;;;;;;14.09;69.84;100109.59;1457981;89;21398;-92
2023/10/30 02:29:26;;;;;;;9.57;2.07;;;;;;;14.08;69.81;100113.78;1468327;89;21301;-91
2023/10/30 02:31:54;;;;;;;7.57;2.63;;;;;;;14.05;69.75;100112.80;1466133;89;21399;-87
2023/10/30 02:34:21;;;;;;;6.27;2.33;;;;;;;14.04;69.82;100118.64;1457305;89;21279;-91
2023/10/30 02:36:47;;;;;;;3.93;1.90;;;;;;;14.00;69.88;100105.34;1472299;89;21523;-92
2023/10/30 02:39:13;;;;;;;6.17;2.40;;;;;;;13.96;70.07;100111.53;1469595;89;21398;-91
2023/10/30 02:41:40;;;;;;;5.07;1.60;;;;;;;13.93;70.19;100107.89;1444633;89;21574;-86
2023/10/30 02:44:07;;;;;;;3.43;1.50;;;;;;;13.90;70.39;100104.77;1464947;89;21405;-87
2023/10/30 02:46:33;;;;;;;3.47;1.73;;;;;;;13.85;70.56;100100.47;1469755;89;21346;-87
2023/10/30 02:48:59;;;;;;;3.87;2.00;;;;;;;13.81;71.08;100101.81;1454608;89;22277;-86
2023/10/30 02:51:26;;;;;;;5.63;2.87;;;;;;;13.80;71.34;100105.48;1455207;89;22396;-87
2023/10/30 02:53:54;;;;;;;7.57;1.80;;;;;;;13.79;71.54;100109.98;1459768;89;21405;-86
2023/10/30 02:56:20;;;;;;;8.70;3.53;;;;;;;13.80;71.66;100108.15;1467722;86;21421;-84
2023/10/30 02:58:47;;;;;;;7.13;3.10;;;;;;;13.81;71.64;100111.98;1441502;89;22544;-80
2023/10/30 03:01:13;;;;;;;7.27;2.40;;;;;;;13.79;71.75;100113.98;1444424;90;21349;-79
2023/10/30 03:03:40;;;;;;;6.90;2.23;;;;;;;13.77;71.83;100110.66;1446836;90;21371;-80
2023/10/30 03:06:06;;;;;;;7.63;3.20;;;;;;;13.74;71.89;100113.16;1450665;90;21383;-81
2023/10/30 03:08:33;;;;;;;6.37;2.00;;;;;;;13.71;72.06;100111.36;1443085;90;21376;-77
2023/10/30 03:10:59;;;;;;;5.33;2.57;;;;;;;13.67;72.51;100118.05;1439035;90;22301;-77
2023/10/30 03:13:25;;;;;;;2.43;1.53;;;;;;;13.64;72.49;100113.08;1445876;90;21361;-82
2023/10/30 03:15:52;;;;;;;6.07;1.87;;;;;;;13.61;72.78;100116.06;1423706;90;21536;-81
2023/10/30 03:18:18;;;;;;;8.83;2.33;;;;;;;13.59;73.20;100122.08;1432832;90;21572;-81
2023/10/30 03:20:44;;;;;;;6.37;2.77;;;;;;;13.58;73.57;100116.41;1430577;90;21633;-82
2023/10/30 03:23:11;;;;;;;6.17;2.07;;;;;;;13.59;73.77;100114.10;1447237;90;22234;-79
2023/10/30 03:25:37;;;;;;;9.23;2.13;;;;;;;13.59;73.92;100118.09;1445200;90;21346;-79
2023/10/30 03:28:04;;;;;;;5.10;1.80;;;;;;;13.60;73.75;100115.75;1431218;90;21487;-80
2023/10/30 03:30:30;;;;;;;8.80;2.43;;;;;;;13.59;73.78;100116.77;1455305;90;21391;-80
2023/10/30 03:32:56;;;;;;;4.50;1.77;;;;;;;13.58;73.92;100112.42;1448305;90;22461;-78
2023/10/30 03:35:22;;;;;;;6.60;2.00;;;;;;;13.57;73.98;100120.09;1433211;91;21450;-81
2023/10/30 03:37:49;;;;;;;5.10;1.90;;;;;;;13.57;74.25;100116.09;1419473;91;21324;-79
2023/10/30 03:40:15;;;;;;;8.53;2.27;;;;;;;13.57;74.12;100114.77;1435867;91;21346;-79
2023/10/30 03:42:41;;;;;;;7.03;1.90;;;;;;;13.56;74.27;100121.09;1435522;90;21393;-79
2023/10/30 03:45:08;;;;;;;6.13;1.93;;;;;;;13.55;74.65;100114.92;1442884;91;22308;-79
2023/10/30 03:47:34;;;;;;;5.43;1.50;;;;;;;13.56;74.81;100122.43;1435512;90;21339;-79
2023/10/30 03:50:00;;;;;;;5.33;1.93;;;;;;;13.55;75.04;100117.59;1440080;91;21463;-80
2023/10/30 03:52:27;;;;;;;4.37;1.90;;;;;;;13.56;75.20;100123.76;1435245;90;21989;-79
2023/10/30 03:54:53;;;;;;;7.80;1.97;;;;;;;13.57;75.02;100122.74;1441594;90;21369;-79
2023/10/30 03:57:19;;;;;;;5.30;2.13;;;;;;;13.55;74.93;100122.91;1439463;89;22213;-79
2023/10/30 03:59:45;;;;;;;7.90;1.73;;;;;;;13.53;75.03;100129.74;1465010;88;21446;-79
2023/10/30 04:02:11;;;;;;;4.77;1.97;;;;;;;13.50;75.10;100127.94;1461176;89;21419;-80
2023/10/30 04:04:37;;;;;;;6.07;2.03;;;;;;;13.45;75.35;100127.12;1458296;89;21446;-80
2023/10/30 04:07:04;;;;;;;4.53;2.17;;;;;;;13.40;76.29;100136.11;1472664;88;21324;-78
2023/10/30 04:09:32;;;;;;;6.43;1.70;;;;;;;13.40;76.12;100142.75;1472175;86;21811;-77
2023/10/30 04:12:02;;;;;;;3.13;1.70;;;;;;;13.40;76.44;100136.61;1444265;88;21375;-78
2023/10/30 04:14:26;;;;;;;6.33;1.77;;;;;;;13.40;76.54;100134.78;1468786;88;21293;-79
2023/10/30 04:16:52;;;;;;;6.30;2.47;;;;;;;13.41;76.55;100140.44;1474052;88;21389;-79
2023/10/30 04:19:18;;;;;;;6.57;1.73;;;;;;;13.39;76.56;100129.65;1478857;87;21380;-79
2023/10/30 04:21:44;;;;;;;2.90;1.67;;;;;;;13.38;76.46;100134.14;1473911;87;21509;-81
2023/10/30 04:24:10;;;;;;;7.03;2.40;;;;;;;13.37;76.43;100135.13;1482514;87;22438;-81
2023/10/30 04:26:37;;;;;;;6.73;2.10;;;;;;;13.34;76.61;100136.80;1486646;87;21389;-82
2023/10/30 04:29:04;;;;;;;5.30;1.60;;;;;;;13.28;76.84;100133.51;1478340;86;21406;-81
2023/10/30 04:31:30;;;;;;;4.10;2.00;;;;;;;13.26;76.97;100143.47;1481842;87;21293;-82
2023/10/30 04:33:56;;;;;;;6.27;2.00;;;;;;;13.22;77.47;100136.31;1486047;87;21618;-81
2023/10/30 04:36:22;;;;;;;5.40;2.13;;;;;;;13.19;78.24;100139.32;1479391;87;21280;-80
2023/10/30 04:38:50;;;;;;;2.53;1.43;;;;;;;13.19;78.58;100141.16;1455484;88;22298;-81
2023/10/30 04:41:16;;;;;;;9.60;2.43;;;;;;;13.18;78.58;100144.32;1482156;86;21433;-80
2023/10/30 04:43:42;;;;;;;9.43;2.63;;;;;;;13.18;78.71;100138.18;1485529;87;22247;-81
2023/10/30 04:46:08;;;;;;;5.87;2.40;;;;;;;13.16;78.67;100141.00;1485443;87;21264;-81
2023/10/30 04:48:34;;;;;;;5.30;2.43;;;;;;;13.13;78.89;100137.36;1474238;88;21389;-81
2023/10/30 04:51:01;;;;;;;7.07;3.10;;;;;;;13.08;79.57;100132.54;1478332;86;21330;-81
2023/10/30 04:53:30;;;;;;;4.60;2.00;;;;;;;13.08;79.50;100141.84;1465809;88;23202;-81
2023/10/30 04:56:03;;;;;;;4.60;2.50;;;;;;;13.05;80.14;100138.70;1490314;87;21465;-81
2023/10/30 04:58:29;;;;;;;8.20;2.57;;;;;;;13.05;80.56;100144.84;1476789;87;21603;-81
2023/10/30 05:00:55;;;;;;;6.93;2.10;;;;;;;13.04;80.77;100139.20;1478454;86;22115;-81
2023/10/30 05:03:22;;;;;;;5.97;2.43;;;;;;;13.04;81.09;100140.53;1483346;87;21257;-81
2023/10/30 05:05:48;;;;;;;5.87;1.83;;;;;;;13.05;80.79;100138.20;1481337;87;21400;-81
2023/10/30 05:08:14;;;;;;;12.90;2.20;;;;;;;13.05;81.02;100144.02;1466461;87;21301;-82
2023/10/30 05:10:42;;;;;;;9.07;2.53;;;;;;;13.05;81.17;100144.84;1485877;88;21318;-80
2023/10/30 05:13:08;;;;;;;5.17;2.23;;;;;;;13.03;80.93;100138.03;1471180;88;21345;-81
2023/10/30 05:15:34;;;;;;;6.87;2.27;;;;;;;13.01;81.18;100131.58;1484066;88;21449;-81
2023/10/30 05:18:00;;;;;;;4.37;2.17;;;;;;;12.98;82.18;100141.73;1472643;87;21288;-81
2023/10/30 05:20:27;;;;;;;9.87;2.47;;;;;;;12.96;82.36;100137.90;1458538;88;22426;-80
2023/10/30 05:22:53;;;;;;;6.20;2.67;;;;;;;12.95;82.65;100138.91;1482164;88;21427;-80
2023/10/30 05:25:20;;;;;;;4.27;2.50;;;;;;;12.96;82.87;100141.88;1473163;88;21427;-86
2023/10/30 05:27:47;;;;;;;5.73;2.40;;;;;;;12.96;82.89;100137.90;1478571;88;22303;-87
2023/10/30 05:30:14;;;;;;;5.43;2.47;;;;;;;12.96;82.82;100139.23;1456189;88;22233;-85
2023/10/30 05:32:40;;;;;;;5.63;2.00;;;;;;;12.93;83.18;100140.89;1474991;88;21530;-81
2023/10/30 05:35:07;;;;;;;6.60;2.83;;;;;;;12.91;83.77;100132.26;1454777;88;21516;-82
2023/10/30 05:37:33;;;;;;;6.00;2.57;;;;;;;12.89;83.92;100131.63;1460480;88;22357;-80
2023/10/30 05:39:59;;;;;;;8.40;2.63;;;;;;;12.87;84.39;100132.28;1481099;88;21359;-81
2023/10/30 05:42:26;;;;;;;6.87;2.63;;;;;;;12.86;84.51;100131.97;1478528;88;22299;-81
2023/10/30 05:44:52;;;;;;;5.67;2.20;;;;;;;12.85;84.78;100138.25;1458519;88;21514;-84
2023/10/30 05:47:18;;;;;;;10.87;2.80;;;;;;;12.84;86.41;100137.94;1482288;88;21485;-80
2023/10/30 05:49:45;;;;;;;11.47;2.50;;;;;;;12.84;86.35;100145.40;1480148;88;21367;-81
2023/10/30 05:52:11;;;;;;;9.27;2.10;;;;;;;12.87;86.89;100146.89;1480649;88;21589;-81
2023/10/30 05:54:38;;;;;;;9.20;2.07;;;;;;;12.91;87.59;100158.00;1472526;88;21478;-81
2023/10/30 05:57:05;;;;;;;8.40;2.23;;;;;;;12.96;87.25;100158.33;1474678;88;22291;-81
2023/10/30 05:59:31;;;;;;;7.90;1.90;;;;;;;12.98;87.14;100161.14;1483452;88;22469;-80
2023/10/30 06:01:57;;;;;;;8.37;2.80;;;;;;;13.01;86.84;100168.77;1473137;88;21338;-81
2023/10/30 06:04:24;;;;;;;8.60;3.10;;;;;;;13.02;86.86;100167.77;1479225;88;21368;-81
2023/10/30 06:06:50;;;;;;;7.83;3.00;;;;;;;13.04;87.13;100167.10;1482845;88;21589;-83
2023/10/30 06:09:16;;;;;;;7.97;3.40;;;;;;;13.07;87.08;100169.42;1477811;88;21382;-83
2023/10/30 06:11:49;;;;;;;6.57;1.90;;;;;;;13.09;87.12;100170.59;1482668;88;22321;-80
2023/10/30 06:14:17;;;;;;;12.07;3.17;;;;;;;13.11;87.35;100161.93;1479880;88;21611;-81
2023/10/30 06:16:43;;;;;;;7.23;1.83;;;;;;;13.14;87.57;100167.41;1460974;88;22441;-81
2023/10/30 06:19:10;;;;;;;7.00;1.90;;;;;;;13.20;88.04;100171.53;1475155;88;21427;-81
2023/10/30 06:21:39;;;;;;;6.27;2.37;;;;;;;13.27;88.09;100169.07;1477130;88;21382;-84
2023/10/30 06:24:07;;;;;;;6.27;2.00;;;;;;;13.33;87.61;100171.04;1456530;88;21603;-85
2023/10/30 06:26:33;;;;;;;8.37;3.30;;;;;;;13.40;87.37;100171.99;1480072;88;21507;-86
2023/10/30 06:29:00;;;;;;;4.13;2.20;;;;;;;13.44;86.86;100166.67;1481807;88;21538;-87
2023/10/30 06:31:26;;;;;;;7.97;2.87;;;;;;;13.50;86.38;100165.16;1478842;88;22274;-86
2023/10/30 06:33:54;;;;;;;10.00;2.90;;;;;;;13.53;86.17;100166.97;1481580;88;21398;-85
2023/10/30 06:36:21;;;;;;;4.47;2.40;;;;;;;13.57;85.90;100159.47;1476331;88;21530;-83
2023/10/30 06:38:47;;;;;;;10.07;2.50;;;;;;;13.62;85.54;100166.93;1477244;88;21449;-87
2023/10/30 06:41:14;;;;;;;8.70;2.77;;;;;;;13.65;85.10;100170.57;1476584;88;21589;-85
2023/10/30 06:43:40;;;;;;;8.23;2.50;;;;;;;13.68;85.47;100180.35;1477791;88;21893;-84
2023/10/30 06:46:08;;;;;;;6.23;2.60;;;;;;;13.74;85.62;100184.15;1481749;88;21500;-83
2023/10/30 06:48:34;;;;;;;6.77;2.33;;;;;;;13.81;85.53;100177.14;1482006;88;21397;-84
2023/10/30 06:51:00;;;;;;;3.63;1.73;;;;;;;13.87;84.59;100181.77;1480168;88;21500;-82
2023/10/30 06:53:26;;;;;;;8.00;2.50;;;;;;;13.91;84.17;100184.39;1475472;88;22299;-81
2023/10/30 06:55:52;;;;;;;7.70;2.77;;;;;;;13.95;83.92;100188.38;1481059;88;21338;-82
2023/10/30 06:58:21;;;;;;;6.03;2.47;;;;;;;14.00;83.67;100187.83;1462014;88;21434;-83
2023/10/30 07:00:47;;;;;;;6.13;2.53;;;;;;;14.02;83.33;100184.50;1479982;88;21389;-82
2023/10/30 07:03:13;;;;;;;5.20;2.30;;;;;;;14.04;83.15;100184.30;1459420;88;21545;-81
2023/10/30 07:05:39;;;;;;;5.73;2.37;;;;;;;14.06;82.54;100188.95;1473644;88;21440;-81
2023/10/30 07:08:05;;;;;;;5.97;2.87;;;;;;;14.09;82.83;100192.59;1477175;88;21566;-83
2023/10/30 07:10:32;;;;;;;9.20;2.70;;;;;;;14.12;82.88;100194.91;1482614;88;21449;-80
2023/10/30 07:12:58;;;;;;;10.53;2.73;;;;;;;14.17;83.29;100198.70;1474734;88;21411;-84
2023/10/30 07:15:26;;;;;;;11.67;2.90;;;;;;;14.22;82.06;100204.83;1474286;88;21426;-84
2023/10/30 07:17:57;;;;;;;10.13;3.50;;;;;;;14.29;82.50;100201.77;1460721;88;22261;-86
2023/10/30 07:20:24;;;;;;;7.00;2.43;;;;;;;14.38;81.98;100194.55;1476527;88;21389;-82
2023/10/30 07:22:50;;;;;;;5.37;2.80;;;;;;;14.42;81.57;100188.70;1483148;88;21411;-82
2023/10/30 07:25:16;;;;;;;8.30;3.43;;;;;;;14.51;81.65;100187.31;1471890;88;21611;-88
2023/10/30 07:27:42;;;;;;;12.90;3.53;;;;;;;14.56;81.32;100187.14;1485252;88;21517;-88
2023/10/30 07:30:10;;;;;;;9.07;3.53;;;;;;;14.63;80.50;100182.73;1455589;88;22424;-86
2023/10/30 07:32:36;;;;;;;7.20;3.70;;;;;;;14.70;80.05;100189.48;1478830;88;21404;-87
2023/10/30 07:35:03;;;;;;;8.33;3.53;;;;;;;14.77;79.42;100191.77;1485482;88;21447;-84
2023/10/30 07:37:29;;;;;;;6.27;3.30;;;;;;;14.87;79.26;100196.35;1478682;88;21382;-87
2023/10/30 07:43:55;;;;;;;7.37;3.53;;;;;;;15.06;78.69;100199.49;1479548;88;21441;-83
2023/10/30 07:46:22;;;;;;;6.63;3.73;;;;;;;15.18;77.69;100194.53;1478213;88;21489;-85
2023/10/30 07:48:48;;;;;;;5.20;2.17;;;;;;;15.27;77.35;100203.58;1478740;88;22210;-85
2023/10/30 07:51:14;;;;;;;9.27;3.60;;;;;;;15.38;76.31;100204.15;1455494;88;21604;-85
2023/10/30 07:53:41;;;;;;;5.73;2.50;;;;;;;15.47;76.01;100200.37;1480200;88;21449;-84
2023/10/30 07:56:07;;;;;;;6.03;2.50;;;;;;;15.54;74.74;100198.62;1456407;88;21448;-87
2023/10/30 07:58:34;;;;;;;6.07;2.40;;;;;;;15.65;73.52;100202.64;1459140;88;21538;-86
2023/10/30 08:01:00;;;;;;;7.07;2.70;;;;;;;15.71;72.59;100206.78;1479072;88;22277;-87
2023/10/30 08:03:27;;;;;;;5.60;2.00;;;;;;;15.87;73.05;100198.23;1479521;88;21571;-84
2023/10/30 08:05:53;;;;;;;4.17;2.57;;;;;;;16.06;72.72;100205.64;1458793;88;21427;-85
2023/10/30 08:08:21;;;;;;;7.70;2.53;;;;;;;16.29;71.21;100207.32;1478835;88;21382;-85
2023/10/30 08:10:48;;;;;;;5.00;2.23;;;;;;;16.46;69.47;100206.05;1479963;88;22366;-86
2023/10/30 08:13:15;;;;;;;5.47;2.27;;;;;;;16.62;68.17;100206.28;1476881;88;21501;-86
2023/10/30 08:15:41;;;;;;;7.90;2.67;;;;;;;16.78;66.69;100199.36;1455523;88;21426;-86
2023/10/30 08:18:14;;;;;;;7.43;3.33;;;;;;;16.96;67.39;100207.41;1479895;88;21456;-86
2023/10/30 08:20:41;;;;;;;13.40;2.57;;;;;;;17.06;66.19;100211.41;1476464;88;21419;-87
2023/10/30 08:23:07;;;;;;;9.33;2.67;;;;;;;17.15;64.19;100216.09;1478610;88;21511;-87
2023/10/30 08:25:34;;;;;;;14.10;2.75;;;;;;;17.29;64.34;100216.97;1484348;88;22497;-86
2023/10/30 08:28:01;;;;;;;7.47;2.22;;;;;;;17.45;63.74;100205.97;1476257;88;22329;-84
2023/10/30 08:30:27;;;;;;;7.58;2.10;;;;;;;17.60;62.74;100205.31;1481359;88;21531;-86
2023/10/30 08:32:53;;;;;;;5.95;2.35;;;;;;;17.72;59.91;100211.44;1476604;88;21425;-85
2023/10/30 08:35:20;;;;;;;3.00;1.77;;;;;;;17.80;60.73;100209.44;1457442;88;22321;-85
2023/10/30 08:37:46;;;;;;;9.40;2.83;;;;;;;17.92;60.16;100204.33;1478742;88;21382;-85
2023/10/30 08:40:12;;;;;;;4.95;2.52;;;;;;;18.12;60.08;100200.89;1479894;88;21588;-88
2023/10/30 08:42:39;;;;;;;5.67;2.15;;;;;;;18.30;57.71;100201.16;1471992;88;21383;-87
2023/10/30 08:45:18;;;;;;;6.37;2.72;;;;;;;18.40;57.74;100190.84;1472872;88;22402;-84
2023/10/30 08:47:45;;;;;;;10.15;2.67;;;;;;;18.45;57.03;100185.70;1474158;88;21641;-86
2023/10/30 08:50:11;;;;;;;9.03;2.42;;;;;;;18.60;56.55;100195.41;1474808;88;22262;-85
2023/10/30 08:52:44;;;;;;;10.68;2.35;;;;;;;18.69;56.60;100196.33;1469009;88;21665;-84
2023/10/30 08:55:10;;;;;;;6.03;2.05;;;;;;;18.82;56.05;100183.48;1473855;88;22902;-86
2023/10/30 08:57:37;;;;;;;7.60;2.67;;;;;;;18.97;56.14;100185.94;1479152;88;21574;-87
2023/10/30 09:00:07;;;;;;;5.50;2.40;;;;;;;19.05;56.01;100184.91;1456164;88;21426;-86
2023/10/30 09:02:34;;;;;;;14.33;3.83;;;;;;;19.14;55.04;100194.38;1459928;88;21485;-86
2023/10/30 09:05:01;;;;;;;6.17;2.83;;;;;;;19.21;53.59;100205.90;1458844;88;21411;-87
2023/10/30 09:07:27;;;;;;;9.28;3.08;;;;;;;19.14;54.28;100198.39;1484449;88;22505;-92
2023/10/30 09:09:54;;;;;;;7.28;2.67;;;;;;;19.17;54.51;100208.70;1473970;88;21383;-86
2023/10/30 09:12:20;;;;;;;7.83;2.77;;;;;;;19.32;54.59;100211.97;1477780;88;21702;-85
2023/10/30 09:14:47;;;;;;;3.95;1.87;;;;;;;19.86;53.47;100213.17;1480047;88;21367;-88
2023/10/30 09:17:13;;;;;;;8.45;1.85;;;;;;;20.39;52.50;100211.52;1477182;88;22499;-87
2023/10/30 09:38:17;;;;;;;7.65;2.15;;;;;;;22.13;46.45;100179.93;1429465;91;21665;-86
2023/10/30 09:40:46;;;;;;;4.25;1.80;;;;;;;22.01;47.02;100179.89;1435918;91;21534;-86
2023/10/30 09:43:17;;;;;;;4.20;2.00;;;;;;;22.29;45.48;100177.94;1513592;91;21450;-86
2023/10/30 09:45:45;;;;;;;6.12;2.02;;;;;;;22.68;45.56;100168.93;1372503;91;21600;-86
2023/10/30 09:48:12;;;;;;;3.35;1.92;;;;;;;22.83;44.40;100167.11;1359985;92;22124;-88
2023/10/30 09:50:41;;;;;;;4.47;1.82;;;;;;;23.10;44.59;100167.50;1368448;91;21258;-86
2023/10/30 09:53:10;;;;;;;3.15;1.80;;;;;;;23.46;44.81;100168.78;1412098;91;21449;-88
2023/10/30 09:55:37;;;;;;;6.92;2.10;;;;;;;23.59;44.20;100163.94;1384554;91;21346;-89
2023/10/30 09:58:03;;;;;;;6.12;2.08;;;;;;;23.82;43.43;100160.36;1430825;91;21494;-84
2023/10/30 10:00:30;;;;;;;5.55;2.08;;;;;;;24.16;43.93;100169.87;1466155;88;21419;-85
2023/10/30 10:02:57;;;;;;;4.92;2.25;;;;;;;24.28;42.02;100163.04;1477298;88;21352;-84
2023/10/30 10:05:23;;;;;;;5.17;2.17;;;;;;;24.41;42.40;100157.33;1476575;88;21767;-86
2023/10/30 10:07:51;;;;;;;5.20;2.20;;;;;;;24.32;41.20;100166.91;1470768;88;21375;-88
2023/10/30 10:10:18;;;;;;;5.75;1.92;;;;;;;24.37;41.61;100156.70;1474090;88;21530;-86
2023/10/30 10:12:51;;;;;;;4.70;1.90;;;;;;;24.45;42.38;100153.62;1472117;88;22336;-84
2023/10/30 10:15:20;;;;;;;13.75;2.25;;;;;;;24.35;41.55;100138.56;1468472;88;21561;-87
2023/10/30 10:17:52;;;;;;;10.20;1.80;;;;;;;24.43;42.21;100143.06;1461725;89;21420;-85
2023/10/30 10:20:21;;;;;;;7.40;2.37;;;;;;;24.42;42.29;100131.91;1463856;88;21420;-86
2023/10/30 10:22:48;;;;;;;5.90;1.87;;;;;;;24.23;41.69;100139.45;1543944;89;21548;-85
2023/10/30 10:26:27;;;;;;;4.97;2.20;;;;;;;24.22;42.13;100131.03;1387539;89;21390;-85
2023/10/30 10:32:59;;;;;;;3.92;1.82;;;;;;;24.21;42.40;100132.65;1537127;88;22453;-88
2023/10/30 10:35:36;;;;;;;7.47;1.95;;;;;;;24.24;41.63;100138.92;1458312;89;21442;-86
2023/10/30 10:38:10;;;;;;;7.92;2.25;;;;;;;24.30;42.49;100140.09;1461431;89;21465;-86
2023/10/30 10:40:41;;;;;;;5.55;1.82;;;;;;;24.26;41.98;100144.91;1468669;88;21316;-84
2023/10/30 10:43:08;;;;;;;7.03;2.02;;;;;;;24.13;42.19;100131.16;1471945;88;22371;-85
2023/10/30 10:45:37;;;;;;;4.78;1.82;;;;;;;24.27;42.18;100137.08;1475861;88;21599;-87
2023/10/30 10:48:06;;;;;;;5.10;2.02;;;;;;;24.31;42.09;100136.35;1395015;88;21514;-89
2023/10/30 10:50:34;;;;;;;14.68;1.80;;;;;;;24.13;42.07;100133.86;1396083;88;21236;-87
2023/10/30 10:53:04;;;;;;;4.72;1.70;;;;;;;24.12;42.64;100130.88;1382737;90;21397;-86
2023/10/30 10:55:37;;;;;;;4.25;2.08;;;;;;;24.07;42.95;100132.14;1497113;88;21369;-88
2023/10/30 10:58:08;;;;;;;9.50;2.30;;;;;;;24.04;42.19;100128.57;1470866;88;21493;-86
2023/10/30 11:00:47;;;;;;;7.03;2.27;;;;;;;24.05;42.72;100126.14;1404455;88;21360;-85
2023/10/30 11:03:15;;;;;;;7.55;2.05;;;;;;;23.91;41.95;100132.91;1463759;88;22343;-87
2023/10/30 11:05:43;;;;;;;6.05;2.30;;;;;;;23.77;41.79;100141.34;1473939;88;21574;-86
2023/10/30 11:08:40;;;;;;;6.40;2.22;;;;;;;23.69;41.76;100133.59;1395846;88;21302;-87
2023/10/30 11:11:24;;;;;;;5.08;2.10;;;;;;;23.70;42.07;100131.19;1397652;88;21428;-88
2023/10/30 11:14:31;;;;;;;7.62;1.65;;;;;;;23.62;42.09;100122.93;1523463;88;22284;-88
2023/10/30 11:17:02;;;;;;;8.65;1.60;;;;;;;23.73;42.17;100125.30;1471881;88;21463;-88
2023/10/30 11:19:29;;;;;;;10.98;2.70;;;;;;;23.80;42.38;100127.34;1442942;88;21383;-86
2023/10/30 11:21:56;;;;;;;10.43;2.05;;;;;;;23.85;42.29;100130.14;1473058;88;21531;-88
2023/10/30 11:24:44;;;;;;;6.30;1.27;;;;;;;23.87;42.24;100125.83;1476815;88;21651;-89
2023/10/30 11:27:30;;;;;;;5.05;2.52;;;;;;;23.73;41.23;100119.09;1394870;88;21243;-87
2023/10/30 11:30:11;;;;;;;7.60;1.72;;;;;;;23.55;41.76;100134.92;1479119;88;21345;-89
2023/10/30 11:32:49;;;;;;;4.87;2.15;;;;;;;23.39;41.94;100126.53;1472158;88;22246;-87
2023/10/30 11:35:22;;;;;;;7.72;1.75;;;;;;;23.18;41.62;100121.22;1475263;88;21522;-84
2023/10/30 11:37:51;;;;;;;3.85;1.37;;;;;;;23.19;42.15;100127.47;1473486;88;22480;-88
2023/10/30 11:40:18;;;;;;;4.97;1.87;;;;;;;23.12;42.42;100120.02;1382035;90;21450;-87
2023/10/30 11:42:44;;;;;;;5.17;1.95;;;;;;;23.13;42.79;100114.39;1398140;88;21281;-87
2023/10/30 11:45:25;;;;;;;6.20;2.50;;;;;;;23.08;42.87;100117.51;1398440;88;21383;-88
2023/10/30 11:48:03;;;;;;;13.98;6.97;;;;;;;23.00;43.13;100119.22;1542057;88;21325;-88
2023/10/30 11:50:40;;;;;;;10.85;7.03;;;;;;;22.86;43.35;100120.77;1558939;88;21371;-83
2023/10/30 11:53:08;;;;;;;17.80;9.93;;;;;;;22.75;43.80;100102.71;1559313;88;21397;-87
2023/10/30 11:55:43;;;;;;;17.57;8.30;;;;;;;22.59;43.93;100106.14;1388452;89;21382;-87